sensor_id;sensor_type;location;lat;lon;timestamp;temperature;humidity
13389;DHT22;6764;53.250;10.410;2023-04-24T00:01:15;14.20;99.90
13389;DHT22;6764;53.250;10.410;2023-04-24T00:03:42;14.20;99.90
13389;DHT22;6764;53.250;10.410;2023-04-24T00:06:08;14.20;99.90
13389;DHT22;6764;53.250;10.410;2023-04-24T00:08:37;14.20;99.90
13389;DHT22;6764;53.250;10.410;2023-04-24T00:11:02;14.20;99.90
13389;DHT22;6764;53.250;10.410;2023-04-24T00:13:28;14.20;99.90
13389;DHT22;6764;53.250;10.410;2023-04-24T00:15:55;14.10;99.90
13389;DHT22;6764;53.250;10.410;2023-04-24T00:18:20;14.10;99.90
13389;DHT22;6764;53.250;10.410;2023-04-24T00:20:46;14.10;99.90
13389;DHT22;6764;53.250;10.410;2023-04-24T00:23:12;14.10;99.90
13389;DHT22;6764;53.250;10.410;2023-04-24T00:25:38;14.10;99.90
13389;DHT22;6764;53.250;10.410;2023-04-24T00:28:04;14.10;99.90
13389;DHT22;6764;53.250;10.410;2023-04-24T00:30:30;14.10;99.90
13389;DHT22;6764;53.250;10.410;2023-04-24T00:32:55;14.10;99.90
13389;DHT22;6764;53.250;10.410;2023-04-24T00:35:21;14.00;99.90
13389;DHT22;6764;53.250;10.410;2023-04-24T00:37:47;14.10;99.90
13389;DHT22;6764;53.250;10.410;2023-04-24T00:40:12;14.10;99.90
13389;DHT22;6764;53.250;10.410;2023-04-24T00:42:40;14.00;99.90
13389;DHT22;6764;53.250;10.410;2023-04-24T00:45:06;14.00;99.90
13389;DHT22;6764;53.250;10.410;2023-04-24T00:47:33;14.00;99.90
13389;DHT22;6764;53.250;10.410;2023-04-24T00:50:03;14.10;99.90
13389;DHT22;6764;53.250;10.410;2023-04-24T00:52:29;14.10;99.90
13389;DHT22;6764;53.250;10.410;2023-04-24T00:54:57;14.10;99.90
13389;DHT22;6764;53.250;10.410;2023-04-24T00:57:23;14.10;99.90
13389;DHT22;6764;53.250;10.410;2023-04-24T00:59:49;14.10;99.90
13389;DHT22;6764;53.250;10.410;2023-04-24T01:02:15;14.10;99.90
13389;DHT22;6764;53.250;10.410;2023-04-24T01:04:41;14.20;99.90
13389;DHT22;6764;53.250;10.410;2023-04-24T01:07:07;14.10;99.90
13389;DHT22;6764;53.250;10.410;2023-04-24T01:09:37;14.00;99.90
13389;DHT22;6764;53.250;10.410;2023-04-24T01:12:03;14.10;99.90
13389;DHT22;6764;53.250;10.410;2023-04-24T01:14:29;14.10;99.90
13389;DHT22;6764;53.250;10.410;2023-04-24T01:16:55;14.10;99.90
13389;DHT22;6764;53.250;10.410;2023-04-24T01:19:22;14.00;99.90
13389;DHT22;6764;53.250;10.410;2023-04-24T01:21:51;14.00;99.90
13389;DHT22;6764;53.250;10.410;2023-04-24T01:24:19;13.90;99.90
13389;DHT22;6764;53.250;10.410;2023-04-24T01:26:45;13.90;99.90
13389;DHT22;6764;53.250;10.410;2023-04-24T01:29:11;13.80;99.90
13389;DHT22;6764;53.250;10.410;2023-04-24T01:31:38;13.70;99.90
13389;DHT22;6764;53.250;10.410;2023-04-24T01:34:04;13.70;99.90
13389;DHT22;6764;53.250;10.410;2023-04-24T01:36:31;13.60;99.90
13389;DHT22;6764;53.250;10.410;2023-04-24T01:38:58;13.50;99.90
13389;DHT22;6764;53.250;10.410;2023-04-24T01:41:25;13.50;99.90
13389;DHT22;6764;53.250;10.410;2023-04-24T01:43:50;13.40;99.90
13389;DHT22;6764;53.250;10.410;2023-04-24T01:46:16;13.40;99.90
13389;DHT22;6764;53.250;10.410;2023-04-24T01:48:42;13.40;99.90
13389;DHT22;6764;53.250;10.410;2023-04-24T01:51:08;13.30;99.90
13389;DHT22;6764;53.250;10.410;2023-04-24T01:53:33;13.30;99.90
13389;DHT22;6764;53.250;10.410;2023-04-24T01:55:59;13.30;99.90
13389;DHT22;6764;53.250;10.410;2023-04-24T01:58:25;13.30;99.90
13389;DHT22;6764;53.250;10.410;2023-04-24T02:00:51;13.30;99.90
13389;DHT22;6764;53.250;10.410;2023-04-24T02:03:17;13.20;99.90
13389;DHT22;6764;53.250;10.410;2023-04-24T02:05:46;13.20;99.90
13389;DHT22;6764;53.250;10.410;2023-04-24T02:08:11;13.20;99.90
13389;DHT22;6764;53.250;10.410;2023-04-24T02:10:37;13.20;99.90
13389;DHT22;6764;53.250;10.410;2023-04-24T02:13:02;13.20;99.90
13389;DHT22;6764;53.250;10.410;2023-04-24T02:15:28;13.20;99.90
13389;DHT22;6764;53.250;10.410;2023-04-24T02:17:54;13.20;99.90
13389;DHT22;6764;53.250;10.410;2023-04-24T02:20:19;13.20;99.90
13389;DHT22;6764;53.250;10.410;2023-04-24T02:22:45;13.20;99.90
13389;DHT22;6764;53.250;10.410;2023-04-24T02:25:11;13.10;99.90
13389;DHT22;6764;53.250;10.410;2023-04-24T02:27:36;13.10;99.90
13389;DHT22;6764;53.250;10.410;2023-04-24T02:30:02;13.10;99.90
13389;DHT22;6764;53.250;10.410;2023-04-24T02:32:28;13.10;99.90
13389;DHT22;6764;53.250;10.410;2023-04-24T02:34:54;13.10;99.90
13389;DHT22;6764;53.250;10.410;2023-04-24T02:37:19;13.10;99.90
13389;DHT22;6764;53.250;10.410;2023-04-24T02:39:45;13.10;99.90
13389;DHT22;6764;53.250;10.410;2023-04-24T02:42:10;13.10;99.90
13389;DHT22;6764;53.250;10.410;2023-04-24T02:44:36;13.00;99.90
13389;DHT22;6764;53.250;10.410;2023-04-24T02:47:02;13.00;99.90
13389;DHT22;6764;53.250;10.410;2023-04-24T02:49:27;12.90;99.90
13389;DHT22;6764;53.250;10.410;2023-04-24T02:51:53;12.90;99.90
13389;DHT22;6764;53.250;10.410;2023-04-24T02:54:19;12.90;99.90
13389;DHT22;6764;53.250;10.410;2023-04-24T02:56:44;12.80;99.90
13389;DHT22;6764;53.250;10.410;2023-04-24T02:59:10;12.80;99.90
13389;DHT22;6764;53.250;10.410;2023-04-24T03:01:36;12.80;99.90
13389;DHT22;6764;53.250;10.410;2023-04-24T03:04:02;12.80;99.90
13389;DHT22;6764;53.250;10.410;2023-04-24T03:06:27;12.80;99.90
13389;DHT22;6764;53.250;10.410;2023-04-24T03:08:53;12.70;99.90
13389;DHT22;6764;53.250;10.410;2023-04-24T03:11:19;12.70;99.90
13389;DHT22;6764;53.250;10.410;2023-04-24T03:13:45;12.70;99.90
13389;DHT22;6764;53.250;10.410;2023-04-24T03:16:11;12.60;99.90
13389;DHT22;6764;53.250;10.410;2023-04-24T03:18:39;12.60;99.90
13389;DHT22;6764;53.250;10.410;2023-04-24T03:21:05;12.60;99.90
13389;DHT22;6764;53.250;10.410;2023-04-24T03:23:30;12.60;99.90
13389;DHT22;6764;53.250;10.410;2023-04-24T03:25:56;12.60;99.90
13389;DHT22;6764;53.250;10.410;2023-04-24T03:28:22;12.50;99.90
13389;DHT22;6764;53.250;10.410;2023-04-24T03:30:47;12.50;99.90
13389;DHT22;6764;53.250;10.410;2023-04-24T03:33:13;12.50;99.90
13389;DHT22;6764;53.250;10.410;2023-04-24T03:35:38;12.50;99.90
13389;DHT22;6764;53.250;10.410;2023-04-24T03:38:04;12.40;99.90
13389;DHT22;6764;53.250;10.410;2023-04-24T03:40:30;12.40;99.90
13389;DHT22;6764;53.250;10.410;2023-04-24T03:42:55;12.30;99.90
13389;DHT22;6764;53.250;10.410;2023-04-24T03:45:21;12.30;99.90
13389;DHT22;6764;53.250;10.410;2023-04-24T03:47:47;12.30;99.90
13389;DHT22;6764;53.250;10.410;2023-04-24T03:50:12;12.30;99.90
13389;DHT22;6764;53.250;10.410;2023-04-24T03:52:38;12.30;99.90
13389;DHT22;6764;53.250;10.410;2023-04-24T03:55:04;12.20;99.90
13389;DHT22;6764;53.250;10.410;2023-04-24T03:57:29;12.20;99.90
13389;DHT22;6764;53.250;10.410;2023-04-24T03:59:55;12.10;99.90
13389;DHT22;6764;53.250;10.410;2023-04-24T04:02:21;12.10;99.90
13389;DHT22;6764;53.250;10.410;2023-04-24T04:04:46;12.10;99.90
13389;DHT22;6764;53.250;10.410;2023-04-24T04:07:12;12.00;99.90
13389;DHT22;6764;53.250;10.410;2023-04-24T04:09:38;12.00;99.90
13389;DHT22;6764;53.250;10.410;2023-04-24T04:12:04;12.00;99.90
13389;DHT22;6764;53.250;10.410;2023-04-24T04:14:29;12.00;99.90
13389;DHT22;6764;53.250;10.410;2023-04-24T04:16:55;12.00;99.90
13389;DHT22;6764;53.250;10.410;2023-04-24T04:19:21;12.00;99.90
13389;DHT22;6764;53.250;10.410;2023-04-24T04:21:46;12.00;99.90
13389;DHT22;6764;53.250;10.410;2023-04-24T04:24:17;12.00;99.90
13389;DHT22;6764;53.250;10.410;2023-04-24T04:26:42;12.00;99.90
13389;DHT22;6764;53.250;10.410;2023-04-24T04:29:11;11.90;99.90
13389;DHT22;6764;53.250;10.410;2023-04-24T04:31:37;12.00;99.90
13389;DHT22;6764;53.250;10.410;2023-04-24T04:34:02;11.90;99.90
13389;DHT22;6764;53.250;10.410;2023-04-24T04:36:29;11.90;99.90
13389;DHT22;6764;53.250;10.410;2023-04-24T04:38:54;11.90;99.90
13389;DHT22;6764;53.250;10.410;2023-04-24T04:41:22;12.00;99.90
13389;DHT22;6764;53.250;10.410;2023-04-24T04:43:47;12.00;99.90
13389;DHT22;6764;53.250;10.410;2023-04-24T04:46:13;11.90;99.90
13389;DHT22;6764;53.250;10.410;2023-04-24T04:48:39;11.90;99.90
13389;DHT22;6764;53.250;10.410;2023-04-24T04:51:05;11.90;99.90
13389;DHT22;6764;53.250;10.410;2023-04-24T04:53:31;11.80;99.90
13389;DHT22;6764;53.250;10.410;2023-04-24T04:55:57;11.80;99.90
13389;DHT22;6764;53.250;10.410;2023-04-24T04:58:23;11.80;99.90
13389;DHT22;6764;53.250;10.410;2023-04-24T05:00:48;11.90;99.90
13389;DHT22;6764;53.250;10.410;2023-04-24T05:03:14;11.90;99.90
13389;DHT22;6764;53.250;10.410;2023-04-24T05:05:40;11.90;99.90
13389;DHT22;6764;53.250;10.410;2023-04-24T05:08:07;12.00;99.90
13389;DHT22;6764;53.250;10.410;2023-04-24T05:10:33;12.00;99.90
13389;DHT22;6764;53.250;10.410;2023-04-24T05:12:58;12.00;99.90
13389;DHT22;6764;53.250;10.410;2023-04-24T05:15:24;12.00;99.90
13389;DHT22;6764;53.250;10.410;2023-04-24T05:17:50;12.00;99.90
13389;DHT22;6764;53.250;10.410;2023-04-24T05:20:15;12.00;99.90
13389;DHT22;6764;53.250;10.410;2023-04-24T05:22:42;11.90;99.90
13389;DHT22;6764;53.250;10.410;2023-04-24T05:25:07;12.00;99.90
13389;DHT22;6764;53.250;10.410;2023-04-24T05:27:33;12.00;99.90
13389;DHT22;6764;53.250;10.410;2023-04-24T05:29:59;12.00;99.90
13389;DHT22;6764;53.250;10.410;2023-04-24T05:32:24;12.10;99.90
13389;DHT22;6764;53.250;10.410;2023-04-24T05:34:51;12.10;99.90
13389;DHT22;6764;53.250;10.410;2023-04-24T05:37:19;12.00;99.90
13389;DHT22;6764;53.250;10.410;2023-04-24T05:39:44;12.00;99.90
13389;DHT22;6764;53.250;10.410;2023-04-24T05:42:10;12.00;99.90
13389;DHT22;6764;53.250;10.410;2023-04-24T05:44:35;12.00;99.90
13389;DHT22;6764;53.250;10.410;2023-04-24T05:47:01;12.10;99.90
13389;DHT22;6764;53.250;10.410;2023-04-24T05:49:27;12.10;99.90
13389;DHT22;6764;53.250;10.410;2023-04-24T05:51:52;12.10;99.90
13389;DHT22;6764;53.250;10.410;2023-04-24T05:54:19;12.10;99.90
13389;DHT22;6764;53.250;10.410;2023-04-24T05:56:45;12.10;99.90
13389;DHT22;6764;53.250;10.410;2023-04-24T05:59:11;12.20;99.90
13389;DHT22;6764;53.250;10.410;2023-04-24T06:01:37;12.20;99.90
13389;DHT22;6764;53.250;10.410;2023-04-24T06:04:03;12.40;99.90
13389;DHT22;6764;53.250;10.410;2023-04-24T06:06:29;12.40;99.90
13389;DHT22;6764;53.250;10.410;2023-04-24T06:08:55;12.50;99.90
13389;DHT22;6764;53.250;10.410;2023-04-24T06:11:22;12.50;99.90
13389;DHT22;6764;53.250;10.410;2023-04-24T06:13:48;12.50;99.90
13389;DHT22;6764;53.250;10.410;2023-04-24T06:16:14;12.60;99.90
13389;DHT22;6764;53.250;10.410;2023-04-24T06:18:39;12.60;99.90
13389;DHT22;6764;53.250;10.410;2023-04-24T06:21:05;12.70;99.90
13389;DHT22;6764;53.250;10.410;2023-04-24T06:23:31;13.30;99.90
13389;DHT22;6764;53.250;10.410;2023-04-24T06:25:58;14.60;99.90
13389;DHT22;6764;53.250;10.410;2023-04-24T06:28:24;15.90;99.90
13389;DHT22;6764;53.250;10.410;2023-04-24T06:30:50;18.00;99.90
13389;DHT22;6764;53.250;10.410;2023-04-24T06:33:16;19.00;99.90
13389;DHT22;6764;53.250;10.410;2023-04-24T06:35:42;20.50;99.90
13389;DHT22;6764;53.250;10.410;2023-04-24T06:38:07;21.90;97.80
13389;DHT22;6764;53.250;10.410;2023-04-24T06:40:33;22.90;94.80
13389;DHT22;6764;53.250;10.410;2023-04-24T06:42:59;23.90;93.30
13389;DHT22;6764;53.250;10.410;2023-04-24T06:45:25;24.40;91.00
13389;DHT22;6764;53.250;10.410;2023-04-24T06:47:51;25.60;88.30
13389;DHT22;6764;53.250;10.410;2023-04-24T06:50:17;26.30;82.50
13389;DHT22;6764;53.250;10.410;2023-04-24T06:52:43;25.50;81.40
13389;DHT22;6764;53.250;10.410;2023-04-24T06:55:09;25.50;82.60
13389;DHT22;6764;53.250;10.410;2023-04-24T06:57:36;25.90;78.90
13389;DHT22;6764;53.250;10.410;2023-04-24T07:00:03;25.60;79.20
13389;DHT22;6764;53.250;10.410;2023-04-24T07:02:30;26.50;77.90
13389;DHT22;6764;53.250;10.410;2023-04-24T07:04:56;27.50;73.80
13389;DHT22;6764;53.250;10.410;2023-04-24T07:07:22;26.60;73.90
13389;DHT22;6764;53.250;10.410;2023-04-24T07:09:49;26.40;74.20
13389;DHT22;6764;53.250;10.410;2023-04-24T07:12:16;27.20;74.70
13389;DHT22;6764;53.250;10.410;2023-04-24T07:14:42;27.10;71.80
13389;DHT22;6764;53.250;10.410;2023-04-24T07:17:08;26.20;73.50
13389;DHT22;6764;53.250;10.410;2023-04-24T07:19:34;26.00;73.70
13389;DHT22;6764;53.250;10.410;2023-04-24T07:22:02;26.60;73.80
13389;DHT22;6764;53.250;10.410;2023-04-24T07:24:29;26.60;70.10
13389;DHT22;6764;53.250;10.410;2023-04-24T07:26:55;26.50;70.20
13389;DHT22;6764;53.250;10.410;2023-04-24T07:29:20;25.50;70.30
13389;DHT22;6764;53.250;10.410;2023-04-24T07:31:46;25.60;70.80
13389;DHT22;6764;53.250;10.410;2023-04-24T07:34:12;25.00;71.00
13389;DHT22;6764;53.250;10.410;2023-04-24T07:36:38;24.50;72.40
13389;DHT22;6764;53.250;10.410;2023-04-24T07:39:04;23.00;74.20
13389;DHT22;6764;53.250;10.410;2023-04-24T07:41:30;22.00;77.30
13389;DHT22;6764;53.250;10.410;2023-04-24T07:43:55;21.40;78.90
13389;DHT22;6764;53.250;10.410;2023-04-24T07:46:21;20.70;80.80
13389;DHT22;6764;53.250;10.410;2023-04-24T07:48:48;20.90;80.90
13389;DHT22;6764;53.250;10.410;2023-04-24T07:51:14;21.10;81.10
13389;DHT22;6764;53.250;10.410;2023-04-24T07:53:41;21.40;81.30
13389;DHT22;6764;53.250;10.410;2023-04-24T07:56:06;21.70;80.10
13389;DHT22;6764;53.250;10.410;2023-04-24T07:58:32;21.00;81.00
13389;DHT22;6764;53.250;10.410;2023-04-24T08:00:58;20.90;82.50
13389;DHT22;6764;53.250;10.410;2023-04-24T08:03:23;20.90;82.90
13389;DHT22;6764;53.250;10.410;2023-04-24T08:05:50;20.60;84.10
13389;DHT22;6764;53.250;10.410;2023-04-24T08:08:16;21.00;83.70
13389;DHT22;6764;53.250;10.410;2023-04-24T08:10:42;21.70;82.70
13389;DHT22;6764;53.250;10.410;2023-04-24T08:13:08;22.30;80.80
13389;DHT22;6764;53.250;10.410;2023-04-24T08:15:33;22.00;81.10
13389;DHT22;6764;53.250;10.410;2023-04-24T08:17:59;21.50;82.20
13389;DHT22;6764;53.250;10.410;2023-04-24T08:20:25;21.20;83.80
13389;DHT22;6764;53.250;10.410;2023-04-24T08:22:50;20.40;83.70
13389;DHT22;6764;53.250;10.410;2023-04-24T08:25:16;19.80;84.70
13389;DHT22;6764;53.250;10.410;2023-04-24T08:27:43;19.30;85.90
13389;DHT22;6764;53.250;10.410;2023-04-24T08:30:09;19.10;86.20
13389;DHT22;6764;53.250;10.410;2023-04-24T08:32:36;19.10;87.60
13389;DHT22;6764;53.250;10.410;2023-04-24T08:35:02;20.30;85.50
13389;DHT22;6764;53.250;10.410;2023-04-24T08:37:28;21.30;83.00
13389;DHT22;6764;53.250;10.410;2023-04-24T08:39:54;22.60;80.10
13389;DHT22;6764;53.250;10.410;2023-04-24T08:42:20;23.50;77.10
13389;DHT22;6764;53.250;10.410;2023-04-24T08:44:47;23.70;75.90
13389;DHT22;6764;53.250;10.410;2023-04-24T08:47:15;23.20;75.80
13389;DHT22;6764;53.250;10.410;2023-04-24T08:49:40;22.30;78.10
13389;DHT22;6764;53.250;10.410;2023-04-24T08:52:06;21.70;78.70
13389;DHT22;6764;53.250;10.410;2023-04-24T08:54:35;20.70;79.80
13389;DHT22;6764;53.250;10.410;2023-04-24T08:57:02;19.70;81.70
13389;DHT22;6764;53.250;10.410;2023-04-24T08:59:32;18.90;83.80
13389;DHT22;6764;53.250;10.410;2023-04-24T09:01:58;18.80;86.00
13389;DHT22;6764;53.250;10.410;2023-04-24T09:04:25;18.60;87.10
13389;DHT22;6764;53.250;10.410;2023-04-24T09:06:55;18.80;88.50
13389;DHT22;6764;53.250;10.410;2023-04-24T09:09:21;18.90;88.20
13389;DHT22;6764;53.250;10.410;2023-04-24T09:11:49;19.00;87.50
13389;DHT22;6764;53.250;10.410;2023-04-24T09:14:16;18.70;88.50
13389;DHT22;6764;53.250;10.410;2023-04-24T09:16:42;18.50;89.70
13389;DHT22;6764;53.250;10.410;2023-04-24T09:19:08;17.80;90.70
13389;DHT22;6764;53.250;10.410;2023-04-24T09:21:34;17.30;91.80
13389;DHT22;6764;53.250;10.410;2023-04-24T09:24:03;16.80;92.60
13389;DHT22;6764;53.250;10.410;2023-04-24T09:26:30;16.60;93.50
13389;DHT22;6764;53.250;10.410;2023-04-24T09:28:59;16.40;93.80
13389;DHT22;6764;53.250;10.410;2023-04-24T09:31:27;16.20;94.20
13389;DHT22;6764;53.250;10.410;2023-04-24T09:33:55;16.20;94.50
13389;DHT22;6764;53.250;10.410;2023-04-24T09:36:35;16.20;94.60
13389;DHT22;6764;53.250;10.410;2023-04-24T09:39:08;16.70;94.10
13389;DHT22;6764;53.250;10.410;2023-04-24T09:41:34;17.60;93.10
13389;DHT22;6764;53.250;10.410;2023-04-24T09:44:19;18.30;92.20
13389;DHT22;6764;53.250;10.410;2023-04-24T09:46:55;19.50;90.40
13389;DHT22;6764;53.250;10.410;2023-04-24T09:49:24;20.30;85.30
13389;DHT22;6764;53.250;10.410;2023-04-24T09:51:51;20.30;84.60
13389;DHT22;6764;53.250;10.410;2023-04-24T09:54:19;19.60;85.70
13389;DHT22;6764;53.250;10.410;2023-04-24T09:56:50;18.80;87.40
13389;DHT22;6764;53.250;10.410;2023-04-24T09:59:17;18.20;90.00
13389;DHT22;6764;53.250;10.410;2023-04-24T10:01:44;17.90;90.80
13389;DHT22;6764;53.250;10.410;2023-04-24T10:04:24;17.60;90.50
13389;DHT22;6764;53.250;10.410;2023-04-24T10:06:51;17.50;90.90
13389;DHT22;6764;53.250;10.410;2023-04-24T10:09:18;17.70;90.40
13389;DHT22;6764;53.250;10.410;2023-04-24T10:11:46;18.00;90.60
13389;DHT22;6764;53.250;10.410;2023-04-24T10:14:18;17.80;90.50
13389;DHT22;6764;53.250;10.410;2023-04-24T10:16:44;17.70;90.50
13389;DHT22;6764;53.250;10.410;2023-04-24T10:19:13;17.50;90.80
13389;DHT22;6764;53.250;10.410;2023-04-24T10:21:40;17.90;90.80
13389;DHT22;6764;53.250;10.410;2023-04-24T10:24:08;18.60;90.20
13389;DHT22;6764;53.250;10.410;2023-04-24T10:26:35;20.10;86.00
13389;DHT22;6764;53.250;10.410;2023-04-24T10:29:01;21.00;82.30
13389;DHT22;6764;53.250;10.410;2023-04-24T10:31:30;21.80;80.00
13389;DHT22;6764;53.250;10.410;2023-04-24T10:33:56;21.40;78.80
13389;DHT22;6764;53.250;10.410;2023-04-24T10:36:23;20.50;80.50
13389;DHT22;6764;53.250;10.410;2023-04-24T10:38:52;20.20;82.80
13389;DHT22;6764;53.250;10.410;2023-04-24T10:41:20;20.70;82.30
13389;DHT22;6764;53.250;10.410;2023-04-24T10:43:48;21.30;80.70
13389;DHT22;6764;53.250;10.410;2023-04-24T10:46:30;20.50;81.00
13389;DHT22;6764;53.250;10.410;2023-04-24T10:48:56;19.70;83.40
13389;DHT22;6764;53.250;10.410;2023-04-24T10:51:24;19.20;84.80
13389;DHT22;6764;53.250;10.410;2023-04-24T10:53:50;18.20;86.20
13389;DHT22;6764;53.250;10.410;2023-04-24T10:56:17;17.90;87.90
13389;DHT22;6764;53.250;10.410;2023-04-24T10:58:45;17.70;89.20
13389;DHT22;6764;53.250;10.410;2023-04-24T11:01:37;17.80;88.60
13389;DHT22;6764;53.250;10.410;2023-04-24T11:04:03;19.00;86.80
13389;DHT22;6764;53.250;10.410;2023-04-24T11:06:32;20.20;84.70
13389;DHT22;6764;53.250;10.410;2023-04-24T11:09:06;20.30;81.60
13389;DHT22;6764;53.250;10.410;2023-04-24T11:11:33;20.00;81.70
13389;DHT22;6764;53.250;10.410;2023-04-24T11:16:52;19.10;81.90
13389;DHT22;6764;53.250;10.410;2023-04-24T11:19:24;18.50;84.00
13389;DHT22;6764;53.250;10.410;2023-04-24T11:22:02;17.90;85.00
13389;DHT22;6764;53.250;10.410;2023-04-24T11:26:56;17.30;85.50
13389;DHT22;6764;53.250;10.410;2023-04-24T11:29:22;17.30;84.70
13389;DHT22;6764;53.250;10.410;2023-04-24T11:31:48;17.50;84.50
13389;DHT22;6764;53.250;10.410;2023-04-24T11:34:17;17.80;82.30
13389;DHT22;6764;53.250;10.410;2023-04-24T11:36:46;17.80;82.00
13389;DHT22;6764;53.250;10.410;2023-04-24T11:39:15;17.70;82.50
13389;DHT22;6764;53.250;10.410;2023-04-24T11:41:40;17.50;82.70
13389;DHT22;6764;53.250;10.410;2023-04-24T11:44:08;17.30;83.50
13389;DHT22;6764;53.250;10.410;2023-04-24T11:46:34;17.30;84.20
13389;DHT22;6764;53.250;10.410;2023-04-24T11:48:59;17.60;85.50
13389;DHT22;6764;53.250;10.410;2023-04-24T11:51:27;17.70;83.80
13389;DHT22;6764;53.250;10.410;2023-04-24T11:53:54;17.70;83.80
13389;DHT22;6764;53.250;10.410;2023-04-24T11:56:24;17.70;84.00
13389;DHT22;6764;53.250;10.410;2023-04-24T11:58:53;17.70;84.60
13389;DHT22;6764;53.250;10.410;2023-04-24T12:01:20;17.50;85.90
13389;DHT22;6764;53.250;10.410;2023-04-24T12:03:50;17.30;87.10
13389;DHT22;6764;53.250;10.410;2023-04-24T12:06:16;17.20;88.30
13389;DHT22;6764;53.250;10.410;2023-04-24T12:08:46;16.90;88.50
13389;DHT22;6764;53.250;10.410;2023-04-24T12:11:15;16.60;89.50
13389;DHT22;6764;53.250;10.410;2023-04-24T12:13:41;16.60;90.20
13389;DHT22;6764;53.250;10.410;2023-04-24T12:16:06;16.70;90.20
13389;DHT22;6764;53.250;10.410;2023-04-24T12:18:32;16.90;90.10
13389;DHT22;6764;53.250;10.410;2023-04-24T12:21:21;17.00;89.80
13389;DHT22;6764;53.250;10.410;2023-04-24T12:23:47;17.00;90.10
13389;DHT22;6764;53.250;10.410;2023-04-24T12:26:19;17.10;90.00
13389;DHT22;6764;53.250;10.410;2023-04-24T12:28:47;17.20;90.10
13389;DHT22;6764;53.250;10.410;2023-04-24T12:31:13;17.20;90.00
13389;DHT22;6764;53.250;10.410;2023-04-24T12:33:39;16.90;89.40
13389;DHT22;6764;53.250;10.410;2023-04-24T12:36:05;16.80;90.30
13389;DHT22;6764;53.250;10.410;2023-04-24T12:38:32;16.90;90.70
13389;DHT22;6764;53.250;10.410;2023-04-24T12:41:12;16.90;90.40
13389;DHT22;6764;53.250;10.410;2023-04-24T12:43:38;16.90;90.00
13389;DHT22;6764;53.250;10.410;2023-04-24T12:46:04;16.90;89.50
13389;DHT22;6764;53.250;10.410;2023-04-24T12:48:30;16.80;90.10
13389;DHT22;6764;53.250;10.410;2023-04-24T12:51:00;17.00;90.30
13389;DHT22;6764;53.250;10.410;2023-04-24T12:53:29;17.20;90.10
13389;DHT22;6764;53.250;10.410;2023-04-24T12:56:00;17.10;90.20
13389;DHT22;6764;53.250;10.410;2023-04-24T12:58:26;17.20;90.40
13389;DHT22;6764;53.250;10.410;2023-04-24T13:00:52;17.20;90.80
13389;DHT22;6764;53.250;10.410;2023-04-24T13:03:18;16.80;90.40
13389;DHT22;6764;53.250;10.410;2023-04-24T13:05:44;16.50;90.90
13389;DHT22;6764;53.250;10.410;2023-04-24T13:17:29;16.00;92.20
13389;DHT22;6764;53.250;10.410;2023-04-24T13:19:55;15.90;92.60
13389;DHT22;6764;53.250;10.410;2023-04-24T13:22:20;15.80;92.80
13389;DHT22;6764;53.250;10.410;2023-04-24T13:24:46;15.90;93.00
13389;DHT22;6764;53.250;10.410;2023-04-24T13:27:14;15.80;92.70
13389;DHT22;6764;53.250;10.410;2023-04-24T13:29:40;15.70;92.80
13389;DHT22;6764;53.250;10.410;2023-04-24T13:32:06;15.60;92.90
13389;DHT22;6764;53.250;10.410;2023-04-24T13:34:31;15.70;92.80
13389;DHT22;6764;53.250;10.410;2023-04-24T13:36:58;15.80;92.90
13389;DHT22;6764;53.250;10.410;2023-04-24T13:39:24;15.40;93.10
13389;DHT22;6764;53.250;10.410;2023-04-24T13:41:50;15.40;93.40
13389;DHT22;6764;53.250;10.410;2023-04-24T13:44:17;15.60;93.50
13389;DHT22;6764;53.250;10.410;2023-04-24T13:46:45;15.60;93.30
13389;DHT22;6764;53.250;10.410;2023-04-24T13:49:12;15.70;93.00
13389;DHT22;6764;53.250;10.410;2023-04-24T13:51:38;15.80;92.80
13389;DHT22;6764;53.250;10.410;2023-04-24T13:54:04;15.90;93.00
13389;DHT22;6764;53.250;10.410;2023-04-24T13:56:30;15.90;92.90
13389;DHT22;6764;53.250;10.410;2023-04-24T13:58:56;16.00;92.90
13389;DHT22;6764;53.250;10.410;2023-04-24T14:01:22;15.90;92.50
13389;DHT22;6764;53.250;10.410;2023-04-24T14:03:50;15.90;92.90
13389;DHT22;6764;53.250;10.410;2023-04-24T14:06:17;15.90;93.00
13389;DHT22;6764;53.250;10.410;2023-04-24T14:08:42;15.80;92.80
13389;DHT22;6764;53.250;10.410;2023-04-24T14:11:08;15.80;93.10
13389;DHT22;6764;53.250;10.410;2023-04-24T14:13:35;15.70;93.30
13389;DHT22;6764;53.250;10.410;2023-04-24T14:16:01;15.50;93.50
13389;DHT22;6764;53.250;10.410;2023-04-24T14:18:26;15.30;93.50
13389;DHT22;6764;53.250;10.410;2023-04-24T14:20:52;15.30;93.70
13389;DHT22;6764;53.250;10.410;2023-04-24T14:23:18;15.10;94.30
13389;DHT22;6764;53.250;10.410;2023-04-24T14:25:43;15.00;94.80
13389;DHT22;6764;53.250;10.410;2023-04-24T14:28:09;15.00;95.10
13389;DHT22;6764;53.250;10.410;2023-04-24T14:30:35;14.90;95.40
13389;DHT22;6764;53.250;10.410;2023-04-24T14:33:03;14.80;95.90
13389;DHT22;6764;53.250;10.410;2023-04-24T14:35:29;14.80;96.30
13389;DHT22;6764;53.250;10.410;2023-04-24T14:37:56;15.00;96.40
13389;DHT22;6764;53.250;10.410;2023-04-24T14:40:22;15.00;96.10
13389;DHT22;6764;53.250;10.410;2023-04-24T14:42:48;15.10;96.20
13389;DHT22;6764;53.250;10.410;2023-04-24T14:45:13;15.10;95.90
13389;DHT22;6764;53.250;10.410;2023-04-24T14:47:40;15.10;96.10
13389;DHT22;6764;53.250;10.410;2023-04-24T14:50:06;15.10;96.40
13389;DHT22;6764;53.250;10.410;2023-04-24T14:52:32;14.70;96.60
13389;DHT22;6764;53.250;10.410;2023-04-24T14:54:58;14.60;97.00
13389;DHT22;6764;53.250;10.410;2023-04-24T14:57:23;14.50;97.00
13389;DHT22;6764;53.250;10.410;2023-04-24T14:59:49;14.30;97.30
13389;DHT22;6764;53.250;10.410;2023-04-24T15:02:15;14.00;98.10
13389;DHT22;6764;53.250;10.410;2023-04-24T15:04:40;13.90;99.50
13389;DHT22;6764;53.250;10.410;2023-04-24T15:07:06;13.80;99.90
13389;DHT22;6764;53.250;10.410;2023-04-24T15:09:32;13.60;99.90
13389;DHT22;6764;53.250;10.410;2023-04-24T15:11:58;13.40;99.90
13389;DHT22;6764;53.250;10.410;2023-04-24T15:14:23;13.30;99.90
13389;DHT22;6764;53.250;10.410;2023-04-24T15:16:49;13.30;99.90
13389;DHT22;6764;53.250;10.410;2023-04-24T15:19:15;13.30;99.90
13389;DHT22;6764;53.250;10.410;2023-04-24T15:21:40;13.30;99.90
13389;DHT22;6764;53.250;10.410;2023-04-24T15:24:08;13.30;99.90
13389;DHT22;6764;53.250;10.410;2023-04-24T15:26:34;13.40;99.90
13389;DHT22;6764;53.250;10.410;2023-04-24T15:29:00;13.30;99.90
13389;DHT22;6764;53.250;10.410;2023-04-24T15:31:25;13.40;99.90
13389;DHT22;6764;53.250;10.410;2023-04-24T15:33:51;13.30;99.90
13389;DHT22;6764;53.250;10.410;2023-04-24T15:36:17;13.30;99.90
13389;DHT22;6764;53.250;10.410;2023-04-24T15:38:44;13.30;99.90
13389;DHT22;6764;53.250;10.410;2023-04-24T15:41:11;13.30;99.90